createdAt,value
2023-03-28T00:01:01.762Z,102125.88
2023-03-28T00:03:29.820Z,102129.50
2023-03-28T00:06:02.908Z,102128.75
2023-03-28T00:08:30.850Z,102124.47
2023-03-28T00:11:20.195Z,102130.69
2023-03-28T00:14:01.193Z,102128.50
2023-03-28T00:16:33.496Z,102132.28
2023-03-28T00:19:03.290Z,102128.06
2023-03-28T00:21:33.940Z,102132.28
2023-03-28T00:24:03.919Z,102125.38
2023-03-28T00:26:36.066Z,102118.38
2023-03-28T00:29:06.276Z,102128.25
2023-03-28T00:31:35.347Z,102128.47
2023-03-28T00:34:02.810Z,102129.53
2023-03-28T00:36:32.882Z,102120.59
2023-03-28T00:39:01.809Z,102124.16
2023-03-28T00:41:31.475Z,102132.13
2023-03-28T00:43:59.377Z,102123.28
2023-03-28T00:46:31.107Z,102122.47
2023-03-28T00:49:14.913Z,102125.63
2023-03-28T00:51:47.598Z,102124.09
2023-03-28T00:54:18.906Z,102123.81
2023-03-28T00:56:49.649Z,102129.84
2023-03-28T00:59:20.643Z,102131.25
2023-03-28T01:01:50.191Z,102130.50
2023-03-28T01:04:22.431Z,102123.28
2023-03-28T01:06:57.133Z,102126.97
2023-03-28T01:09:24.773Z,102123.28
2023-03-28T01:11:56.744Z,102119.66
2023-03-28T01:14:27.914Z,102120.53
2023-03-28T01:16:57.763Z,102130.38
2023-03-28T01:19:33.958Z,102118.69
2023-03-28T01:22:21.997Z,102118.59
2023-03-28T01:24:54.924Z,102116.00
2023-03-28T01:27:52.293Z,102116.00
2023-03-28T01:31:10.948Z,102107.41
2023-03-28T01:34:45.383Z,102100.31
2023-03-28T01:37:31.660Z,102107.41
2023-03-28T01:40:24.034Z,102099.28
2023-03-28T01:43:14.240Z,102099.28
2023-03-28T01:45:41.785Z,102106.38
2023-03-28T01:48:27.208Z,102098.97
2023-03-28T01:51:10.863Z,102099.69
2023-03-28T01:53:37.958Z,102101.66
2023-03-28T01:56:20.942Z,102093.38
2023-03-28T01:58:59.884Z,102090.69
2023-03-28T02:02:07.761Z,102088.78
2023-03-28T02:04:39.380Z,102087.81
2023-03-28T02:07:08.977Z,102087.03
2023-03-28T02:09:47.591Z,102090.69
2023-03-28T02:12:43.577Z,102089.94
2023-03-28T02:15:28.229Z,102081.78
2023-03-28T02:18:23.740Z,102080.81
2023-03-28T02:21:04.023Z,102078.03
2023-03-28T02:23:39.636Z,102076.31
2023-03-28T02:26:26.580Z,102076.31
2023-03-28T02:29:17.637Z,102078.91
2023-03-28T02:31:50.817Z,102076.31
2023-03-28T02:34:18.480Z,102081.47
2023-03-28T02:37:03.555Z,102075.91
2023-03-28T02:40:05.831Z,102067.09
2023-03-28T02:42:35.777Z,102076.88
2023-03-28T02:45:20.737Z,102076.09
2023-03-28T02:47:50.688Z,102081.47
2023-03-28T02:50:34.835Z,102081.69
2023-03-28T02:53:22.476Z,102083.41
2023-03-28T02:55:55.167Z,102081.69
2023-03-28T02:58:47.985Z,102082.31
2023-03-28T03:01:15.085Z,102083.75
2023-03-28T03:03:43.889Z,102086.88
2023-03-28T03:06:12.665Z,102082.47
2023-03-28T03:08:39.831Z,102081.13
2023-03-28T03:11:06.980Z,102079.72
2023-03-28T03:13:34.110Z,102072.00
2023-03-28T03:16:04.022Z,102073.72
2023-03-28T03:18:32.539Z,102078.03
2023-03-28T03:21:01.869Z,102073.94
2023-03-28T03:23:29.324Z,102073.75
2023-03-28T03:25:58.916Z,102075.63
2023-03-28T03:28:32.351Z,102072.00
2023-03-28T03:31:02.286Z,102077.13
2023-03-28T03:33:38.107Z,102074.06
2023-03-28T03:36:06.759Z,102075.59
2023-03-28T03:38:34.571Z,102072.56
2023-03-28T03:41:02.185Z,102076.66
2023-03-28T03:43:29.121Z,102074.06
2023-03-28T03:45:56.531Z,102071.97
2023-03-28T03:48:23.644Z,102079.22
2023-03-28T03:50:56.612Z,102076.72
2023-03-28T03:53:23.639Z,102083.78
2023-03-28T03:56:02.971Z,102070.19
2023-03-28T03:58:46.700Z,102082.63
2023-03-28T04:01:16.613Z,102066.00
2023-03-28T04:03:44.022Z,102069.81
2023-03-28T04:06:15.694Z,102069.63
2023-03-28T04:08:42.594Z,102064.69
2023-03-28T04:11:10.757Z,102076.03
2023-03-28T04:13:42.252Z,102074.81
2023-03-28T04:16:09.918Z,102071.34
2023-03-28T04:18:50.810Z,102080.53
2023-03-28T04:21:28.339Z,102073.25
2023-03-28T04:23:56.603Z,102074.22
2023-03-28T04:26:50.306Z,102080.16
2023-03-28T04:29:25.271Z,102073.25
2023-03-28T04:32:13.034Z,102079.97
2023-03-28T04:35:03.558Z,102080.56
2023-03-28T04:37:31.232Z,102082.88
2023-03-28T04:40:04.476Z,102080.38
2023-03-28T04:42:50.082Z,102083.63
2023-03-28T04:45:26.526Z,102092.81
2023-03-28T04:47:55.348Z,102092.56
2023-03-28T04:50:23.433Z,102091.53
2023-03-28T04:52:50.526Z,102087.50
2023-03-28T04:55:17.679Z,102089.44
2023-03-28T04:57:47.041Z,102080.31
2023-03-28T05:00:17.273Z,102090.63
2023-03-28T05:02:57.530Z,102092.22
2023-03-28T05:05:26.885Z,102091.63
2023-03-28T05:07:55.101Z,102102.44
2023-03-28T05:10:22.265Z,102098.97
2023-03-28T05:12:51.035Z,102095.75
2023-03-28T05:15:21.477Z,102094.22
2023-03-28T05:18:09.199Z,102101.84
2023-03-28T05:20:37.260Z,102098.28
2023-03-28T05:23:06.244Z,102104.38
2023-03-28T05:25:36.701Z,102106.78
2023-03-28T05:28:04.702Z,102105.38
2023-03-28T05:30:33.509Z,102105.56
2023-03-28T05:33:01.710Z,102108.81
2023-03-28T05:35:29.855Z,102121.06
2023-03-28T05:37:57.611Z,102125.28
2023-03-28T05:40:24.643Z,102131.41
2023-03-28T05:42:51.553Z,102133.50
2023-03-28T05:45:20.906Z,102134.56
2023-03-28T05:48:08.855Z,102145.31
2023-03-28T05:50:36.715Z,102148.72
2023-03-28T05:53:06.616Z,102155.72
2023-03-28T05:55:35.642Z,102156.81
2023-03-28T05:58:04.901Z,102164.09
2023-03-28T06:00:40.529Z,102164.25
2023-03-28T06:03:08.143Z,102158.13
2023-03-28T06:05:39.713Z,102157.34
2023-03-28T06:08:16.912Z,102172.06
2023-03-28T06:10:43.856Z,102172.28
2023-03-28T06:13:31.684Z,102176.69
2023-03-28T06:15:59.043Z,102173.59
2023-03-28T06:18:32.024Z,102177.06
2023-03-28T06:20:59.328Z,102181.69
2023-03-28T06:23:26.335Z,102187.69
2023-03-28T06:25:53.242Z,102191.09
2023-03-28T06:28:21.330Z,102187.53
2023-03-28T06:31:12.475Z,102196.84
2023-03-28T06:33:41.564Z,102197.22
2023-03-28T06:36:12.075Z,102206.13
2023-03-28T06:38:39.348Z,102200.91
2023-03-28T06:41:06.627Z,102203.81
2023-03-28T06:43:35.715Z,102203.63
2023-03-28T06:46:10.356Z,102209.41
2023-03-28T06:48:44.484Z,102215.34
2023-03-28T06:51:23.586Z,102220.72
2023-03-28T06:53:50.885Z,102228.94
2023-03-28T06:56:23.143Z,102225.88
2023-03-28T06:58:50.318Z,102229.06
2023-03-28T07:01:22.471Z,102235.75
2023-03-28T07:04:03.142Z,102233.34
2023-03-28T07:06:30.396Z,102237.97
2023-03-28T07:08:58.557Z,102240.44
2023-03-28T07:11:40.817Z,102237.00
2023-03-28T07:14:07.949Z,102233.34
2023-03-28T07:16:34.958Z,102236.00
2023-03-28T07:19:03.229Z,102243.63
2023-03-28T07:21:34.388Z,102235.72
2023-03-28T07:24:03.590Z,102245.91
2023-03-28T07:26:42.560Z,102240.69
2023-03-28T07:29:09.564Z,102240.38
2023-03-28T07:31:36.756Z,102242.00
2023-03-28T07:34:03.879Z,102243.25
2023-03-28T07:36:31.095Z,102243.50
2023-03-28T07:39:08.363Z,102253.69
2023-03-28T07:41:35.465Z,102257.75
2023-03-28T07:44:02.349Z,102259.66
2023-03-28T07:46:29.470Z,102265.38
2023-03-28T07:48:56.956Z,102272.41
2023-03-28T07:51:24.519Z,102264.66
2023-03-28T07:53:51.905Z,102262.41
2023-03-28T07:56:19.274Z,102267.47
2023-03-28T07:58:58.625Z,102272.56
2023-03-28T08:01:26.494Z,102278.63
2023-03-28T08:04:01.125Z,102275.00
2023-03-28T08:06:39.601Z,102277.31
2023-03-28T08:09:11.288Z,102279.47
2023-03-28T08:11:44.479Z,102286.25
2023-03-28T08:14:14.712Z,102290.56
2023-03-28T08:16:42.629Z,102294.47
2023-03-28T08:19:12.069Z,102299.69
2023-03-28T08:22:02.993Z,102307.66
2023-03-28T08:24:36.558Z,102307.25
2023-03-28T08:27:21.253Z,102317.09
2023-03-28T08:29:51.799Z,102307.75
2023-03-28T08:32:19.522Z,102313.09
2023-03-28T08:34:47.292Z,102303.50
2023-03-28T08:37:17.470Z,102309.06
2023-03-28T08:39:47.443Z,102305.09
2023-03-28T08:42:29.099Z,102298.06
2023-03-28T08:45:08.870Z,102304.72
2023-03-28T08:47:48.314Z,102303.81
2023-03-28T08:50:21.127Z,102308.13
2023-03-28T08:52:48.278Z,102310.56
2023-03-28T08:55:40.869Z,102311.63
2023-03-28T08:58:19.889Z,102323.19
2023-03-28T09:00:48.950Z,102318.81
2023-03-28T09:03:19.793Z,102320.84
2023-03-28T09:06:03.789Z,102309.44
2023-03-28T09:08:50.802Z,102309.47
2023-03-28T09:11:55.013Z,102323.78
2023-03-28T09:15:07.149Z,102313.38
2023-03-28T09:17:58.362Z,102323.53
2023-03-28T09:20:32.953Z,102322.75
2023-03-28T09:23:57.943Z,102319.28
2023-03-28T09:27:04.046Z,102317.94
2023-03-28T09:29:50.768Z,102323.66
2023-03-28T09:32:39.868Z,102313.50
2023-03-28T09:35:21.210Z,102313.81
2023-03-28T09:38:10.129Z,102324.06
2023-03-28T09:40:47.092Z,102317.38
2023-03-28T09:43:47.672Z,102318.44
2023-03-28T09:46:48.796Z,102317.66
2023-03-28T09:49:35.894Z,102323.34
2023-03-28T09:52:19.961Z,102330.19
2023-03-28T09:54:48.456Z,102331.22
2023-03-28T09:57:15.847Z,102317.72
2023-03-28T09:59:58.886Z,102316.47
2023-03-28T10:02:34.849Z,102319.13
2023-03-28T10:05:29.233Z,102326.31
2023-03-28T10:08:05.931Z,102310.88
2023-03-28T10:10:59.576Z,102313.34
2023-03-28T10:13:26.866Z,102314.19
2023-03-28T10:15:58.003Z,102315.31
2023-03-28T10:18:45.212Z,102303.34
2023-03-28T10:21:25.897Z,102307.03
2023-03-28T10:24:09.396Z,102319.28
2023-03-28T10:26:37.525Z,102310.28
2023-03-28T10:29:08.689Z,102329.41
2023-03-28T10:31:39.734Z,102329.34
2023-03-28T10:34:29.807Z,102318.13
2023-03-28T10:37:27.257Z,102318.47
2023-03-28T10:40:20.461Z,102314.44
2023-03-28T10:43:15.862Z,102309.19
2023-03-28T10:46:27.325Z,102318.38
2023-03-28T10:49:19.457Z,102311.72
2023-03-28T10:52:14.045Z,102303.97
2023-03-28T10:55:00.806Z,102311.94
2023-03-28T10:58:06.045Z,102308.75
2023-03-28T11:00:45.568Z,102306.63
2023-03-28T11:03:29.275Z,102307.63
2023-03-28T11:06:38.052Z,102303.19
2023-03-28T11:09:21.236Z,102306.91
2023-03-28T11:12:43.873Z,102311.69
2023-03-28T11:15:31.434Z,102311.97
2023-03-28T11:18:32.150Z,102314.38
2023-03-28T11:21:23.210Z,102312.06
2023-03-28T11:24:20.897Z,102317.81
2023-03-28T11:27:16.282Z,102307.41
2023-03-28T11:30:02.861Z,102301.53
2023-03-28T11:33:10.891Z,102307.31
2023-03-28T11:35:53.531Z,102319.75
2023-03-28T11:38:29.815Z,102319.88
2023-03-28T11:41:21.855Z,102333.34
2023-03-28T11:44:14.027Z,102300.28
2023-03-28T11:47:12.499Z,102305.03
2023-03-28T11:49:48.721Z,102304.53
2023-03-28T11:52:50.114Z,102309.31
2023-03-28T11:55:27.894Z,102305.88
2023-03-28T11:58:28.148Z,102297.94
2023-03-28T12:01:01.555Z,102292.69
2023-03-28T12:03:42.715Z,102298.91
2023-03-28T12:06:22.365Z,102292.25
2023-03-28T12:09:24.537Z,102294.09
2023-03-28T12:12:18.625Z,102283.00
2023-03-28T12:14:54.959Z,102293.88
2023-03-28T12:17:59.627Z,102282.19
2023-03-28T12:20:36.774Z,102274.97
2023-03-28T12:23:24.154Z,102266.72
2023-03-28T12:26:38.901Z,102261.97
2023-03-28T12:29:16.244Z,102263.38
2023-03-28T12:31:48.587Z,102259.63
2023-03-28T12:34:41.814Z,102267.72
2023-03-28T12:37:59.608Z,102249.78
2023-03-28T12:40:48.817Z,102259.50
2023-03-28T12:43:19.033Z,102245.44
2023-03-28T12:45:53.862Z,102238.97
2023-03-28T12:48:34.407Z,102246.78
2023-03-28T12:51:17.969Z,102250.25
2023-03-28T12:54:00.555Z,102247.59
2023-03-28T12:56:28.048Z,102236.56
2023-03-28T12:58:55.412Z,102229.44
2023-03-28T13:01:47.843Z,102242.28
2023-03-28T13:04:56.505Z,102227.25
2023-03-28T13:07:28.352Z,102221.19
2023-03-28T13:10:06.522Z,102225.03
2023-03-28T13:12:39.365Z,102211.50
2023-03-28T13:15:15.453Z,102227.59
2023-03-28T13:17:47.559Z,102211.06
2023-03-28T13:20:17.655Z,102204.38
2023-03-28T13:22:50.422Z,102217.91
2023-03-28T13:25:25.882Z,102207.97
2023-03-28T13:28:01.000Z,102217.44
2023-03-28T13:30:31.912Z,102220.75
2023-03-28T13:33:08.020Z,102209.19
2023-03-28T13:35:46.011Z,102207.06
2023-03-28T13:38:29.200Z,102211.88
2023-03-28T13:41:00.015Z,102202.44
2023-03-28T13:43:51.201Z,102204.06
2023-03-28T13:46:27.442Z,102208.59
2023-03-28T13:49:11.201Z,102211.78
2023-03-28T13:51:48.110Z,102202.34
2023-03-28T13:54:15.803Z,102201.00
2023-03-28T13:56:47.015Z,102195.97
2023-03-28T13:59:32.083Z,102186.03
2023-03-28T14:02:00.189Z,102191.28
2023-03-28T14:04:33.048Z,102200.97
2023-03-28T14:07:01.010Z,102192.88
2023-03-28T14:09:27.904Z,102187.75
2023-03-28T14:12:15.247Z,102179.78
2023-03-28T14:14:46.178Z,102171.31
2023-03-28T14:17:24.706Z,102167.75
2023-03-28T14:19:56.891Z,102174.00
2023-03-28T14:22:29.237Z,102170.31
2023-03-28T14:25:06.828Z,102177.44
2023-03-28T14:27:45.632Z,102177.69
2023-03-28T14:30:26.405Z,102175.09
2023-03-28T14:32:59.291Z,102171.31
2023-03-28T14:35:30.466Z,102178.41
2023-03-28T14:37:59.722Z,102188.88
2023-03-28T14:40:35.240Z,102175.66
2023-03-28T14:43:10.353Z,102172.94
2023-03-28T14:45:41.230Z,102162.88
2023-03-28T14:48:12.855Z,102163.84
2023-03-28T14:50:40.970Z,102168.97
2023-03-28T14:53:13.121Z,102168.97
2023-03-28T14:55:42.202Z,102171.56
2023-03-28T14:58:13.528Z,102147.66
2023-03-28T15:00:47.049Z,102155.00
2023-03-28T15:03:20.354Z,102158.44
2023-03-28T15:05:54.686Z,102149.34
2023-03-28T15:08:36.210Z,102146.31
2023-03-28T15:11:12.832Z,102154.91
2023-03-28T15:13:49.405Z,102163.88
2023-03-28T15:16:20.894Z,102163.78
2023-03-28T15:18:57.500Z,102155.44
2023-03-28T15:21:25.059Z,102161.00
2023-03-28T15:23:58.160Z,102147.50
2023-03-28T15:26:29.347Z,102142.19
2023-03-28T15:28:57.831Z,102136.44
2023-03-28T15:31:26.995Z,102136.19
2023-03-28T15:33:54.851Z,102138.94
2023-03-28T15:36:30.505Z,102138.66
2023-03-28T15:39:25.610Z,102141.34
2023-03-28T15:42:18.111Z,102131.28
2023-03-28T15:44:56.932Z,102125.94
2023-03-28T15:47:27.221Z,102130.56
2023-03-28T15:50:04.188Z,102131.34
2023-03-28T15:52:31.948Z,102131.34
2023-03-28T15:55:01.273Z,102130.13
2023-03-28T15:57:30.357Z,102128.91
2023-03-28T15:59:58.909Z,102121.56
2023-03-28T16:02:26.240Z,102111.97
2023-03-28T16:04:59.298Z,102111.75
2023-03-28T16:07:27.191Z,102108.78
2023-03-28T16:09:54.193Z,102110.63
2023-03-28T16:12:21.232Z,102107.19
2023-03-28T16:15:08.471Z,102108.78
2023-03-28T16:17:45.383Z,102103.88
2023-03-28T16:20:23.286Z,102102.16
2023-03-28T16:22:51.294Z,102104.59
2023-03-28T16:25:18.167Z,102120.28
2023-03-28T16:27:45.104Z,102117.00
2023-03-28T16:30:29.796Z,102110.75
2023-03-28T16:32:56.904Z,102098.59
2023-03-28T16:35:24.964Z,102110.25
2023-03-28T16:37:52.564Z,102124.50
2023-03-28T16:40:19.526Z,102118.22
2023-03-28T16:42:46.518Z,102127.31
2023-03-28T16:45:14.318Z,102122.53
2023-03-28T16:47:42.167Z,102129.63
2023-03-28T16:50:10.135Z,102130.38
2023-03-28T16:52:40.488Z,102136.72
2023-03-28T16:55:07.725Z,102145.34
2023-03-28T16:57:34.639Z,102143.00
2023-03-28T17:00:02.021Z,102139.19
2023-03-28T17:02:29.094Z,102133.56
2023-03-28T17:04:56.388Z,102138.94
2023-03-28T17:07:23.466Z,102134.03
2023-03-28T17:09:50.889Z,102142.19
2023-03-28T17:12:18.445Z,102137.81
2023-03-28T17:14:46.200Z,102138.41
2023-03-28T17:17:13.462Z,102135.19
2023-03-28T17:19:40.470Z,102148.69
2023-03-28T17:22:07.652Z,102145.72
2023-03-28T17:24:34.576Z,102146.69
2023-03-28T17:27:01.459Z,102148.69
2023-03-28T17:29:28.763Z,102154.78
2023-03-28T17:31:56.212Z,102149.28
2023-03-28T17:34:23.600Z,102152.09
2023-03-28T17:36:51.656Z,102154.69
2023-03-28T17:39:18.697Z,102163.72
2023-03-28T17:41:45.631Z,102161.50
2023-03-28T17:44:13.418Z,102158.94
2023-03-28T17:46:40.359Z,102167.03
2023-03-28T17:49:08.374Z,102156.47
2023-03-28T17:51:35.379Z,102157.94
2023-03-28T17:54:05.057Z,102160.63
2023-03-28T17:56:32.309Z,102159.63
2023-03-28T17:58:59.935Z,102168.66
2023-03-28T18:01:26.899Z,102167.19
2023-03-28T18:03:53.796Z,102180.16
2023-03-28T18:06:47.302Z,102173.47
2023-03-28T18:09:15.672Z,102172.00
2023-03-28T18:11:43.006Z,102164.50
2023-03-28T18:14:11.399Z,102173.91
2023-03-28T18:16:40.196Z,102165.22
2023-03-28T18:19:09.135Z,102178.88
2023-03-28T18:21:37.221Z,102171.00
2023-03-28T18:24:04.241Z,102166.72
2023-03-28T18:26:31.686Z,102177.69
2023-03-28T18:28:58.563Z,102172.75
2023-03-28T18:31:28.131Z,102173.75
2023-03-28T18:33:57.475Z,102177.63
2023-03-28T18:36:24.818Z,102169.78
2023-03-28T18:38:51.869Z,102184.19
2023-03-28T18:41:18.740Z,102180.53
2023-03-28T18:43:45.812Z,102185.94
2023-03-28T18:46:16.317Z,102190.69
2023-03-28T18:48:44.959Z,102190.78
2023-03-28T18:51:12.360Z,102186.38
2023-03-28T18:53:39.572Z,102198.22
2023-03-28T18:56:08.476Z,102198.13
2023-03-28T18:58:37.503Z,102204.47
2023-03-28T19:01:06.010Z,102189.53
2023-03-28T19:03:40.468Z,102196.59
2023-03-28T19:06:08.422Z,102212.00
2023-03-28T19:08:35.653Z,102211.50
2023-03-28T19:11:08.450Z,102210.28
2023-03-28T19:13:35.626Z,102204.16
2023-03-28T19:16:07.013Z,102205.16
2023-03-28T19:18:37.327Z,102209.53
2023-03-28T19:21:04.646Z,102199.56
2023-03-28T19:23:31.588Z,102214.84
2023-03-28T19:25:58.749Z,102217.63
2023-03-28T19:28:25.720Z,102219.47
2023-03-28T19:31:01.294Z,102209.56
2023-03-28T19:33:28.923Z,102217.63
2023-03-28T19:35:56.801Z,102216.78
2023-03-28T19:38:26.270Z,102220.41
2023-03-28T19:41:00.521Z,102214.31
2023-03-28T19:43:28.503Z,102211.81
2023-03-28T19:46:02.644Z,102209.88
2023-03-28T19:48:30.002Z,102226.25
2023-03-28T19:50:56.915Z,102222.56
2023-03-28T19:53:23.796Z,102220.88
2023-03-28T19:55:54.996Z,102218.06
2023-03-28T19:58:22.680Z,102227.94
2023-03-28T20:00:50.003Z,102235.53
2023-03-28T20:03:17.905Z,102241.63
2023-03-28T20:05:46.739Z,102230.97
2023-03-28T20:08:14.835Z,102228.84
2023-03-28T20:10:43.358Z,102240.47
2023-03-28T20:13:11.045Z,102239.38
2023-03-28T20:15:41.326Z,102226.91
2023-03-28T20:18:14.588Z,102228.84
2023-03-28T20:20:42.776Z,102238.72
2023-03-28T20:23:11.796Z,102237.88
2023-03-28T20:25:38.786Z,102235.41
2023-03-28T20:28:10.050Z,102237.00
2023-03-28T20:30:37.967Z,102248.84
2023-03-28T20:33:04.947Z,102237.56
2023-03-28T20:35:32.102Z,102242.16
2023-03-28T20:37:59.733Z,102249.28
2023-03-28T20:40:27.192Z,102244.84
2023-03-28T20:42:54.696Z,102247.44
2023-03-28T20:45:24.933Z,102249.50
2023-03-28T20:47:56.617Z,102246.81
2023-03-28T20:50:26.015Z,102251.41
2023-03-28T20:52:53.306Z,102257.75
2023-03-28T20:55:20.643Z,102255.28
2023-03-28T20:57:48.041Z,102262.50
2023-03-28T21:00:17.564Z,102259.16
2023-03-28T21:02:46.331Z,102254.00
2023-03-28T21:05:14.467Z,102266.59
2023-03-28T21:07:41.849Z,102264.94
2023-03-28T21:10:10.291Z,102249.19
2023-03-28T21:12:37.252Z,102248.56
2023-03-28T21:15:04.645Z,102262.97
2023-03-28T21:17:31.709Z,102257.72
2023-03-28T21:19:59.371Z,102243.50
2023-03-28T21:22:26.626Z,102246.19
2023-03-28T21:24:53.576Z,102248.88
2023-03-28T21:27:20.676Z,102250.69
2023-03-28T21:29:47.716Z,102238.44
2023-03-28T21:32:16.069Z,102249.19
2023-03-28T21:34:44.889Z,102242.31
2023-03-28T21:37:12.950Z,102237.81
2023-03-28T21:39:40.113Z,102238.00
2023-03-28T21:42:07.626Z,102234.56
2023-03-28T21:44:34.588Z,102234.75
2023-03-28T21:47:01.732Z,102235.75
2023-03-28T21:49:30.713Z,102234.97
2023-03-28T21:51:57.730Z,102228.75
2023-03-28T21:54:25.618Z,102233.25
2023-03-28T21:56:52.612Z,102233.47
2023-03-28T21:59:20.102Z,102237.13
2023-03-28T22:01:47.236Z,102237.13
2023-03-28T22:04:14.695Z,102232.81
2023-03-28T22:06:41.717Z,102232.06
2023-03-28T22:09:08.653Z,102243.66
2023-03-28T22:11:35.825Z,102242.88
2023-03-28T22:14:02.990Z,102227.00
2023-03-28T22:16:32.495Z,102234.97
2023-03-28T22:19:00.946Z,102244.84
2023-03-28T22:21:30.334Z,102237.72
2023-03-28T22:23:58.973Z,102239.56
2023-03-28T22:26:28.832Z,102224.63
2023-03-28T22:28:57.730Z,102237.09
2023-03-28T22:31:26.139Z,102230.84
2023-03-28T22:33:54.563Z,102234.50
2023-03-28T22:36:21.773Z,102237.94
2023-03-28T22:38:49.396Z,102230.84
2023-03-28T22:41:16.416Z,102224.53
2023-03-28T22:43:43.512Z,102226.34
2023-03-28T22:46:12.891Z,102229.53
2023-03-28T22:48:39.945Z,102217.66
2023-03-28T22:51:11.826Z,102217.66
2023-03-28T22:53:39.930Z,102229.13
2023-03-28T22:56:07.545Z,102240.09
2023-03-28T22:58:34.563Z,102232.97
2023-03-28T23:01:01.841Z,102220.50
2023-03-28T23:03:28.956Z,102232.34
2023-03-28T23:05:56.859Z,102240.25
2023-03-28T23:08:23.932Z,102234.03
2023-03-28T23:10:51.031Z,102219.00
2023-03-28T23:13:18.017Z,102221.69
2023-03-28T23:15:45.032Z,102232.50
2023-03-28T23:18:12.166Z,102228.22
2023-03-28T23:20:39.777Z,102208.66
2023-03-28T23:23:06.994Z,102224.69
2023-03-28T23:25:34.534Z,102224.78
2023-03-28T23:28:01.813Z,102209.84
2023-03-28T23:30:28.775Z,102211.47
2023-03-28T23:32:56.076Z,102217.66
2023-03-28T23:35:22.988Z,102210.78
2023-03-28T23:37:53.320Z,102201.31
2023-03-28T23:40:20.719Z,102206.59
2023-03-28T23:42:47.750Z,102201.31
2023-03-28T23:45:15.828Z,102209.28
2023-03-28T23:47:44.050Z,102204.13
2023-03-28T23:50:11.577Z,102213.34
2023-03-28T23:52:38.534Z,102208.72
2023-03-28T23:55:07.970Z,102210.53
2023-03-28T23:57:34.854Z,102219.44
